Time;durP1;ratioP1;P1;durP2;ratioP2;P2;SDS_P1;SDS_P2;PMS_P1;PMS_P2;Temp;Humidity;BMP_temperature;BMP_pressure;BME280_temperature;BME280_humidity;BME280_pressure;Samples;Min_cycle;Max_cycle;Signal;HPM_P1;HPM_P2
2023/06/24 00:01:50;;;;;;;7.23;5.80;;;15.20;99.90;;;;;;4937653;29;20600;-75
2023/06/24 00:04:20;;;;;;;7.50;6.33;;;15.20;99.90;;;;;;4947059;29;20662;-76
2023/06/24 00:06:48;;;;;;;6.93;5.63;;;15.20;99.90;;;;;;4957078;29;20220;-75
2023/06/24 00:09:17;;;;;;;9.37;5.90;;;15.20;99.90;;;;;;4971484;28;20237;-75
2023/06/24 00:11:47;;;;;;;6.60;5.57;;;15.10;99.90;;;;;;4955857;28;20678;-75
2023/06/24 00:14:16;;;;;;;7.47;5.50;;;15.20;99.90;;;;;;4937962;29;20212;-74
2023/06/24 00:16:44;;;;;;;7.13;5.87;;;15.10;99.90;;;;;;4937142;29;20290;-76
2023/06/24 00:19:12;;;;;;;7.87;5.70;;;15.20;99.90;;;;;;4937348;29;20295;-75
2023/06/24 00:21:40;;;;;;;6.57;5.70;;;15.20;99.90;;;;;;4937399;29;20208;-76
2023/06/24 00:24:09;;;;;;;6.37;5.77;;;15.10;99.90;;;;;;4936919;29;20267;-76
2023/06/24 00:26:37;;;;;;;6.97;5.77;;;15.10;99.90;;;;;;4953014;28;20723;-76
2023/06/24 00:29:06;;;;;;;6.63;5.73;;;15.10;99.90;;;;;;4944270;28;20662;-76
2023/06/24 00:31:34;;;;;;;6.63;5.47;;;15.10;99.90;;;;;;4936192;29;20220;-75
2023/06/24 00:34:02;;;;;;;6.63;5.73;;;15.10;99.90;;;;;;4936455;29;20558;-76
2023/06/24 00:36:31;;;;;;;6.90;5.67;;;15.20;99.90;;;;;;4937107;29;20268;-75
2023/06/24 00:39:03;;;;;;;6.93;5.83;;;15.20;99.90;;;;;;4937014;29;20240;-75
2023/06/24 00:41:31;;;;;;;7.07;5.90;;;15.10;99.90;;;;;;4936818;29;20258;-75
2023/06/24 00:43:59;;;;;;;6.87;6.07;;;15.10;99.90;;;;;;4936456;29;20264;-75
2023/06/24 00:46:33;;;;;;;10.87;6.17;;;15.10;99.90;;;;;;4937009;29;20239;-75
2023/06/24 00:49:02;;;;;;;7.20;5.93;;;15.10;99.90;;;;;;4936817;29;20216;-75
2023/06/24 00:51:32;;;;;;;8.97;6.10;;;15.10;99.90;;;;;;4936829;29;20216;-75
2023/06/24 00:54:01;;;;;;;7.33;5.83;;;15.10;99.90;;;;;;4936369;29;20263;-75
2023/06/24 00:56:31;;;;;;;6.37;5.70;;;15.10;99.90;;;;;;4936636;29;20291;-75
2023/06/24 00:59:01;;;;;;;7.60;6.17;;;15.10;99.90;;;;;;4936560;29;20204;-74
2023/06/24 01:01:33;;;;;;;6.40;5.80;;;15.10;99.90;;;;;;4936314;29;20666;-76
2023/06/24 01:04:02;;;;;;;7.00;6.00;;;15.10;99.90;;;;;;4936358;29;20215;-76
2023/06/24 01:06:31;;;;;;;8.27;6.37;;;15.10;99.90;;;;;;4940457;29;20593;-75
2023/06/24 01:09:02;;;;;;;6.90;6.13;;;15.00;99.90;;;;;;4955780;28;20254;-76
2023/06/24 01:11:31;;;;;;;8.90;6.23;;;15.00;99.90;;;;;;4938419;28;20213;-76
2023/06/24 01:13:59;;;;;;;6.77;5.90;;;15.00;99.90;;;;;;4936012;29;20218;-76
2023/06/24 01:16:36;;;;;;;6.90;5.83;;;15.00;99.90;;;;;;4936283;29;20212;-79
2023/06/24 01:19:15;;;;;;;7.17;5.70;;;15.00;99.90;;;;;;4936295;29;20251;-77
2023/06/24 01:21:57;;;;;;;6.47;5.80;;;15.00;99.90;;;;;;4936561;29;20192;-78
2023/06/24 01:24:39;;;;;;;6.67;5.90;;;15.00;99.90;;;;;;4936297;29;20252;-75
2023/06/24 01:27:41;;;;;;;7.00;6.30;;;15.00;99.90;;;;;;4935997;29;20259;-74
2023/06/24 01:30:34;;;;;;;7.10;5.50;;;15.00;99.90;;;;;;4936296;29;20267;-74
2023/06/24 01:33:08;;;;;;;7.07;5.93;;;15.10;99.90;;;;;;4924089;29;20220;-75
2023/06/24 01:35:39;;;;;;;7.77;6.40;;;15.00;99.90;;;;;;4935561;29;20211;-75
2023/06/24 01:38:11;;;;;;;7.63;5.80;;;15.00;99.90;;;;;;4935759;29;20279;-74
2023/06/24 01:40:43;;;;;;;6.93;5.93;;;15.00;99.90;;;;;;4935806;29;20228;-75
2023/06/24 01:43:14;;;;;;;7.33;6.13;;;15.00;99.90;;;;;;4935206;29;20401;-75
2023/06/24 01:45:45;;;;;;;7.57;6.00;;;15.00;99.90;;;;;;4935750;29;20200;-75
2023/06/24 01:48:16;;;;;;;7.43;5.87;;;15.00;99.90;;;;;;4935547;29;20252;-74
2023/06/24 01:50:50;;;;;;;7.00;5.77;;;15.00;99.90;;;;;;4935626;29;20215;-76
2023/06/24 01:53:19;;;;;;;6.80;5.90;;;15.00;99.90;;;;;;4934526;29;20714;-76
2023/06/24 01:55:49;;;;;;;7.73;5.50;;;15.00;99.90;;;;;;4935594;29;20216;-76
2023/06/24 01:58:19;;;;;;;7.13;5.83;;;15.00;99.90;;;;;;4935098;29;20577;-76
2023/06/24 02:00:49;;;;;;;7.30;5.97;;;15.00;99.90;;;;;;4935680;29;20497;-76
2023/06/24 02:03:20;;;;;;;7.00;6.13;;;15.00;99.90;;;;;;4935006;29;20216;-76
2023/06/24 02:05:50;;;;;;;6.90;6.20;;;15.00;99.90;;;;;;4954948;28;20217;-75
2023/06/24 02:08:18;;;;;;;7.07;5.90;;;15.00;99.90;;;;;;4973662;28;20211;-76
2023/06/24 02:10:47;;;;;;;7.53;6.53;;;15.00;99.90;;;;;;4973594;28;20246;-75
2023/06/24 02:13:17;;;;;;;8.47;5.77;;;15.00;99.90;;;;;;4973317;28;20294;-75
2023/06/24 02:15:46;;;;;;;7.37;6.57;;;15.00;99.90;;;;;;4973823;28;20207;-76
2023/06/24 02:18:17;;;;;;;7.40;5.77;;;15.00;99.90;;;;;;4942151;28;20275;-75
2023/06/24 02:20:49;;;;;;;7.23;6.33;;;15.00;99.90;;;;;;4935246;29;20216;-75
2023/06/24 02:23:18;;;;;;;7.23;6.10;;;15.00;99.90;;;;;;4935093;29;20218;-75
2023/06/24 02:25:46;;;;;;;7.47;5.83;;;15.00;99.90;;;;;;4935250;29;20220;-76
2023/06/24 02:28:16;;;;;;;7.77;5.73;;;15.10;99.90;;;;;;4935126;29;20213;-75
2023/06/24 02:30:46;;;;;;;6.77;6.07;;;15.00;99.90;;;;;;4935040;29;20299;-75
2023/06/24 02:33:14;;;;;;;7.80;6.00;;;15.00;99.90;;;;;;4934771;29;20212;-75
2023/06/24 02:35:45;;;;;;;7.37;5.97;;;15.00;99.90;;;;;;4935028;29;20208;-75
2023/06/24 02:38:15;;;;;;;7.63;6.10;;;15.00;99.90;;;;;;4935077;29;20228;-76
2023/06/24 02:40:45;;;;;;;6.60;5.90;;;15.00;99.90;;;;;;4935089;29;20216;-76
2023/06/24 02:43:15;;;;;;;7.27;6.10;;;15.00;99.90;;;;;;4934357;29;20686;-76
2023/06/24 02:45:43;;;;;;;7.87;6.33;;;15.00;99.90;;;;;;4934982;29;20420;-76
2023/06/24 02:48:13;;;;;;;7.47;6.40;;;15.00;99.90;;;;;;4934969;29;20263;-75
2023/06/24 02:50:44;;;;;;;6.80;6.10;;;15.00;99.90;;;;;;4934610;29;20267;-76
2023/06/24 02:53:15;;;;;;;7.90;5.77;;;15.00;99.90;;;;;;4934331;29;20236;-74
2023/06/24 02:55:44;;;;;;;7.50;6.47;;;15.00;99.90;;;;;;4955681;28;20263;-75
2023/06/24 02:58:14;;;;;;;6.50;5.90;;;15.00;99.90;;;;;;4957825;28;20223;-75
2023/06/24 03:00:42;;;;;;;7.97;6.77;;;15.00;99.90;;;;;;4947137;28;20626;-77
2023/06/24 03:03:10;;;;;;;7.40;6.20;;;15.00;99.90;;;;;;4938348;29;20263;-76
2023/06/24 03:05:40;;;;;;;7.47;6.30;;;15.00;99.90;;;;;;4938765;29;20235;-76
2023/06/24 03:08:08;;;;;;;7.70;6.27;;;14.90;99.90;;;;;;4938768;29;20212;-76
2023/06/24 03:10:39;;;;;;;7.27;6.20;;;15.00;99.90;;;;;;4938913;29;20216;-75
2023/06/24 03:13:07;;;;;;;6.77;6.07;;;14.90;99.90;;;;;;4937951;29;20236;-75
2023/06/24 03:15:35;;;;;;;7.10;6.40;;;15.00;99.90;;;;;;4938546;29;20291;-75
2023/06/24 03:18:04;;;;;;;7.23;6.50;;;15.00;99.90;;;;;;4937735;28;20332;-76
2023/06/24 03:20:38;;;;;;;6.97;6.27;;;15.00;99.90;;;;;;4938205;29;20267;-75
2023/06/24 03:23:07;;;;;;;8.63;6.00;;;15.00;99.90;;;;;;4937780;29;20682;-75
2023/06/24 03:25:35;;;;;;;7.77;6.50;;;15.00;99.90;;;;;;4938353;29;20219;-76
2023/06/24 03:28:07;;;;;;;7.17;6.33;;;15.00;99.90;;;;;;4938169;29;20248;-76
2023/06/24 03:30:35;;;;;;;7.73;6.77;;;15.00;99.90;;;;;;4946100;29;20211;-76
2023/06/24 03:33:04;;;;;;;7.33;6.40;;;15.00;99.90;;;;;;4956993;28;20219;-76
2023/06/24 03:35:32;;;;;;;8.63;6.20;;;15.00;99.90;;;;;;4942630;28;20219;-75
2023/06/24 03:38:01;;;;;;;6.57;5.87;;;15.00;99.90;;;;;;4937481;29;20212;-75
2023/06/24 03:40:29;;;;;;;6.63;5.83;;;15.00;99.90;;;;;;4938230;29;20216;-75
2023/06/24 03:42:58;;;;;;;6.90;5.97;;;15.00;99.90;;;;;;4937669;29;20213;-75
2023/06/24 03:45:27;;;;;;;6.80;6.00;;;15.00;99.90;;;;;;4937984;29;20260;-76
2023/06/24 03:47:55;;;;;;;8.17;6.40;;;15.00;99.90;;;;;;4937983;29;20219;-74
2023/06/24 03:50:23;;;;;;;6.53;5.70;;;15.00;99.90;;;;;;4937647;29;20521;-76
2023/06/24 03:52:52;;;;;;;7.33;6.20;;;15.10;99.90;;;;;;4936999;29;20216;-75
2023/06/24 03:55:20;;;;;;;8.73;5.83;;;15.10;99.90;;;;;;4937615;29;20263;-76
2023/06/24 03:57:48;;;;;;;9.37;6.17;;;15.10;99.90;;;;;;4937730;29;20216;-76
2023/06/24 04:00:16;;;;;;;7.20;5.67;;;15.10;99.90;;;;;;4937200;29;20323;-76
2023/06/24 04:02:46;;;;;;;6.97;6.00;;;15.20;99.90;;;;;;4960451;28;20218;-76
2023/06/24 04:05:14;;;;;;;7.70;6.00;;;15.20;99.90;;;;;;4976057;28;20218;-75
2023/06/24 04:07:46;;;;;;;8.27;5.83;;;15.30;99.90;;;;;;4963622;28;20208;-75
2023/06/24 04:10:15;;;;;;;7.87;6.17;;;15.20;99.90;;;;;;4937551;29;20208;-75
2023/06/24 04:12:43;;;;;;;6.60;5.93;;;15.30;99.90;;;;;;4940261;29;20215;-75
2023/06/24 04:15:12;;;;;;;7.33;5.80;;;15.30;99.90;;;;;;4956494;29;20215;-76
2023/06/24 04:17:40;;;;;;;6.87;5.90;;;15.40;99.90;;;;;;4955639;29;20212;-74
2023/06/24 04:20:10;;;;;;;6.37;5.47;;;15.40;99.90;;;;;;4956450;29;20227;-76
2023/06/24 04:22:40;;;;;;;7.30;5.97;;;15.40;99.90;;;;;;4956349;28;20280;-76
2023/06/24 04:25:09;;;;;;;8.60;5.73;;;15.50;99.90;;;;;;4956283;29;20262;-76
2023/06/24 04:27:37;;;;;;;7.40;5.70;;;15.60;99.90;;;;;;4939843;28;20231;-76
2023/06/24 04:30:06;;;;;;;6.17;5.10;;;15.60;99.90;;;;;;4939606;29;20598;-76
2023/06/24 04:32:34;;;;;;;6.27;5.10;;;15.70;99.90;;;;;;4936891;29;20271;-75
2023/06/24 04:35:04;;;;;;;6.17;4.90;;;15.70;99.90;;;;;;4936743;29;20267;-75
2023/06/24 04:37:33;;;;;;;5.87;5.17;;;15.80;99.90;;;;;;4937195;29;20216;-75
2023/06/24 04:40:01;;;;;;;8.70;5.80;;;15.90;99.90;;;;;;4937149;29;20328;-75
2023/06/24 04:42:29;;;;;;;5.70;5.10;;;15.90;99.90;;;;;;4936087;29;20769;-75
2023/06/24 04:44:58;;;;;;;6.73;5.30;;;16.00;99.90;;;;;;4936993;29;20213;-74
2023/06/24 04:47:26;;;;;;;6.60;4.97;;;16.00;99.90;;;;;;4936952;29;20553;-77
2023/06/24 04:49:54;;;;;;;6.73;5.50;;;16.20;99.90;;;;;;4936796;29;20204;-76
2023/06/24 04:52:24;;;;;;;6.90;5.43;;;16.20;99.90;;;;;;4936173;29;20271;-76
2023/06/24 04:54:53;;;;;;;5.50;4.90;;;16.20;99.90;;;;;;4936363;29;20290;-75
2023/06/24 04:57:27;;;;;;;7.47;4.57;;;16.30;99.90;;;;;;4936595;29;20223;-76
2023/06/24 04:59:55;;;;;;;6.27;4.70;;;16.40;99.90;;;;;;4936634;29;20590;-75
2023/06/24 05:02:23;;;;;;;5.77;4.70;;;16.40;99.90;;;;;;4946390;28;20238;-75
2023/06/24 05:04:53;;;;;;;5.93;4.73;;;16.50;99.90;;;;;;4936583;29;20204;-76
2023/06/24 05:07:21;;;;;;;5.90;4.93;;;16.60;99.90;;;;;;4940853;29;20303;-76
2023/06/24 05:09:51;;;;;;;6.53;5.17;;;16.70;99.90;;;;;;4948984;28;20686;-76
2023/06/24 05:12:20;;;;;;;6.03;4.90;;;16.80;99.90;;;;;;4944584;28;20212;-75
2023/06/24 05:14:51;;;;;;;6.47;4.80;;;16.80;99.90;;;;;;4938950;29;20242;-75
2023/06/24 05:17:19;;;;;;;6.07;4.80;;;16.90;99.90;;;;;;4943906;29;20207;-77
2023/06/24 05:19:47;;;;;;;5.07;4.40;;;17.10;99.90;;;;;;4936005;29;20258;-77
2023/06/24 05:22:15;;;;;;;5.70;4.70;;;17.30;99.90;;;;;;4936915;29;20216;-77
2023/06/24 05:24:43;;;;;;;4.97;4.47;;;17.50;99.90;;;;;;4946756;29;20259;-76
2023/06/24 05:27:12;;;;;;;5.37;4.60;;;17.60;99.90;;;;;;4944108;28;20267;-77
2023/06/24 05:29:41;;;;;;;5.00;4.50;;;17.60;99.90;;;;;;4940836;29;20208;-77
2023/06/24 05:32:09;;;;;;;6.27;4.60;;;17.60;99.90;;;;;;4939921;29;20273;-74
2023/06/24 05:34:37;;;;;;;4.50;4.10;;;17.50;99.90;;;;;;4937512;29;20216;-76
2023/06/24 05:37:05;;;;;;;5.90;4.33;;;17.50;99.90;;;;;;4937060;29;20649;-76
2023/06/24 05:39:34;;;;;;;6.07;4.40;;;17.60;99.90;;;;;;4936749;29;20283;-74
2023/06/24 05:42:02;;;;;;;4.70;4.07;;;17.80;99.90;;;;;;4937059;29;20221;-75
2023/06/24 05:44:30;;;;;;;5.40;4.37;;;18.00;99.90;;;;;;4936999;29;20208;-74
2023/06/24 05:46:59;;;;;;;5.37;4.67;;;18.10;99.90;;;;;;4936690;29;20275;-75
2023/06/24 05:49:27;;;;;;;5.80;4.40;;;18.10;99.90;;;;;;4936220;29;20272;-75
2023/06/24 05:51:55;;;;;;;5.70;4.33;;;18.30;99.90;;;;;;4935836;29;20646;-76
2023/06/24 05:54:23;;;;;;;4.83;4.30;;;18.30;99.90;;;;;;4935491;29;20246;-76
2023/06/24 05:56:51;;;;;;;4.37;3.90;;;18.20;99.90;;;;;;4935880;29;20646;-76
2023/06/24 05:59:19;;;;;;;4.17;3.77;;;18.40;99.90;;;;;;4941036;28;20215;-75
2023/06/24 06:01:48;;;;;;;4.80;4.00;;;18.30;99.90;;;;;;4951813;28;20329;-76
2023/06/24 06:04:17;;;;;;;5.43;4.00;;;18.50;99.90;;;;;;4950530;28;20215;-77
2023/06/24 06:06:45;;;;;;;4.73;4.10;;;18.60;99.90;;;;;;4949789;29;20208;-75
2023/06/24 06:09:13;;;;;;;5.47;4.20;;;18.50;99.90;;;;;;4953071;28;20212;-76
2023/06/24 06:11:41;;;;;;;4.70;4.10;;;18.60;99.90;;;;;;4954272;29;20265;-75
2023/06/24 06:14:10;;;;;;;5.23;3.90;;;18.50;99.90;;;;;;4954056;29;20668;-76
2023/06/24 06:16:38;;;;;;;4.43;4.03;;;18.50;99.90;;;;;;4942724;29;20220;-76
2023/06/24 06:19:06;;;;;;;4.60;3.97;;;18.50;99.90;;;;;;4934898;29;20679;-77
2023/06/24 06:21:38;;;;;;;5.10;4.47;;;18.50;99.90;;;;;;4935253;29;20283;-77
2023/06/24 06:24:07;;;;;;;5.10;4.40;;;18.40;99.90;;;;;;4934857;29;20248;-75
2023/06/24 06:26:35;;;;;;;5.03;4.53;;;18.40;99.90;;;;;;4935043;29;20670;-76
2023/06/24 06:29:03;;;;;;;4.37;3.97;;;18.50;99.90;;;;;;4935039;29;20264;-76
2023/06/24 06:31:31;;;;;;;5.93;4.10;;;18.50;99.90;;;;;;4934186;29;20667;-75
2023/06/24 06:33:59;;;;;;;5.80;4.50;;;18.60;99.90;;;;;;4934561;29;20220;-76
2023/06/24 06:36:27;;;;;;;5.83;4.70;;;18.50;99.90;;;;;;4935128;29;20247;-77
2023/06/24 06:38:57;;;;;;;8.07;4.53;;;18.50;99.90;;;;;;4935167;29;20280;-76
2023/06/24 06:41:25;;;;;;;6.57;4.43;;;18.50;99.90;;;;;;4934641;29;20327;-76
2023/06/24 06:43:53;;;;;;;5.00;4.47;;;18.60;99.90;;;;;;4934683;29;20208;-76
2023/06/24 06:46:21;;;;;;;5.13;4.13;;;18.90;99.90;;;;;;4934660;29;20216;-77
2023/06/24 06:48:50;;;;;;;5.70;4.80;;;18.80;99.90;;;;;;4935015;29;20215;-76
2023/06/24 06:51:20;;;;;;;5.90;4.67;;;18.80;99.90;;;;;;4935078;29;20567;-75
2023/06/24 06:53:48;;;;;;;6.50;4.90;;;19.00;99.90;;;;;;4935422;29;20240;-76
2023/06/24 06:56:24;;;;;;;5.20;4.67;;;19.20;99.90;;;;;;4934547;29;20667;-76
2023/06/24 06:58:52;;;;;;;7.00;4.90;;;19.20;99.90;;;;;;4960474;28;20215;-76
2023/06/24 07:01:20;;;;;;;4.93;4.20;;;19.30;99.90;;;;;;4980565;28;20234;-77
2023/06/24 07:03:50;;;;;;;5.90;5.00;;;19.40;99.90;;;;;;4976693;28;20685;-74
2023/06/24 07:06:19;;;;;;;4.63;3.90;;;19.70;99.90;;;;;;4950305;28;20654;-76
2023/06/24 07:08:47;;;;;;;4.90;4.40;;;19.80;99.90;;;;;;4937355;29;20216;-75
2023/06/24 07:11:16;;;;;;;4.70;4.20;;;20.00;99.90;;;;;;4935303;29;20292;-75
2023/06/24 07:13:45;;;;;;;5.17;3.90;;;20.10;99.90;;;;;;4934196;29;20216;-78
2023/06/24 07:16:14;;;;;;;5.90;4.27;;;20.10;99.90;;;;;;4933851;29;20632;-76
2023/06/24 07:18:42;;;;;;;4.33;3.80;;;20.20;99.90;;;;;;4933608;29;20290;-75
2023/06/24 07:21:10;;;;;;;4.40;4.00;;;20.30;99.90;;;;;;4934306;29;20274;-77
2023/06/24 07:23:38;;;;;;;5.13;3.90;;;20.30;99.90;;;;;;4933013;29;20659;-75
2023/06/24 07:26:06;;;;;;;4.43;4.00;;;20.40;99.90;;;;;;4933351;29;20279;-74
2023/06/24 07:28:34;;;;;;;4.77;4.03;;;20.10;99.90;;;;;;4934048;29;20216;-76
2023/06/24 07:31:04;;;;;;;4.33;3.67;;;20.00;99.90;;;;;;4934708;29;20618;-76
2023/06/24 07:33:33;;;;;;;4.67;3.70;;;20.00;99.90;;;;;;4934029;28;20251;-75
2023/06/24 07:36:01;;;;;;;4.77;3.60;;;20.10;99.90;;;;;;4934855;29;20208;-75
2023/06/24 07:38:29;;;;;;;4.50;3.73;;;20.20;99.90;;;;;;4934666;29;20256;-77
2023/06/24 07:40:58;;;;;;;3.57;3.27;;;20.00;99.90;;;;;;4934865;29;20282;-77
2023/06/24 07:43:26;;;;;;;4.10;3.30;;;20.20;99.90;;;;;;4937533;29;20223;-76
2023/06/24 07:45:54;;;;;;;3.80;3.10;;;20.30;99.90;;;;;;4938425;29;20219;-76
2023/06/24 07:48:23;;;;;;;3.10;2.80;;;20.40;99.90;;;;;;4938040;29;20240;-74
2023/06/24 07:50:52;;;;;;;4.07;2.93;;;20.70;99.90;;;;;;4938117;29;20565;-75
2023/06/24 07:53:20;;;;;;;3.03;2.63;;;21.10;99.90;;;;;;4937425;29;20247;-76
2023/06/24 07:55:48;;;;;;;4.50;2.97;;;21.40;99.20;;;;;;4937482;29;20260;-76
2023/06/24 07:58:16;;;;;;;2.83;2.50;;;21.70;98.50;;;;;;4970643;28;20555;-77
2023/06/24 08:00:44;;;;;;;3.63;2.53;;;22.20;96.90;;;;;;4944980;28;20232;-77
2023/06/24 08:03:13;;;;;;;2.87;2.47;;;23.50;91.90;;;;;;4937193;29;20670;-79
2023/06/24 08:05:43;;;;;;;2.20;2.00;;;24.60;92.00;;;;;;4937446;29;20311;-76
2023/06/24 08:08:11;;;;;;;3.20;2.80;;;25.60;77.80;;;;;;4937740;29;20291;-78
2023/06/24 08:10:39;;;;;;;7.50;2.87;;;25.00;76.30;;;;;;4938113;29;20216;-78
2023/06/24 08:13:07;;;;;;;2.43;2.23;;;24.40;76.20;;;;;;4936895;29;20212;-77
2023/06/24 08:15:35;;;;;;;3.03;2.33;;;24.50;69.30;;;;;;4937606;29;20590;-79
2023/06/24 08:18:07;;;;;;;2.65;2.40;;;25.70;70.00;;;;;;4937408;29;20208;-79
2023/06/24 08:20:36;;;;;;;3.88;2.40;;;26.90;65.90;;;;;;4937469;29;20212;-78
2023/06/24 08:23:05;;;;;;;2.58;2.20;;;27.40;61.30;;;;;;4937169;29;20276;-79
2023/06/24 08:25:33;;;;;;;3.28;2.72;;;27.50;55.30;;;;;;4937505;29;20258;-80
2023/06/24 08:28:02;;;;;;;3.10;2.80;;;28.60;52.80;;;;;;4937200;29;20205;-79
2023/06/24 08:30:30;;;;;;;3.17;2.65;;;28.50;52.30;;;;;;4936822;29;20208;-79
2023/06/24 08:32:58;;;;;;;3.17;2.88;;;28.40;55.90;;;;;;4937188;29;20208;-79
2023/06/24 08:35:26;;;;;;;2.67;2.47;;;27.80;52.70;;;;;;4937099;29;20268;-81
2023/06/24 08:37:54;;;;;;;3.17;2.88;;;27.00;56.00;;;;;;4937100;29;20625;-78
2023/06/24 08:40:24;;;;;;;3.05;2.70;;;26.10;58.20;;;;;;4936776;29;20686;-78
2023/06/24 08:42:52;;;;;;;3.13;2.80;;;25.70;59.40;;;;;;4936641;29;20260;-77
2023/06/24 08:45:20;;;;;;;3.17;2.88;;;25.80;60.70;;;;;;4936749;29;20675;-78
2023/06/24 08:47:50;;;;;;;3.28;2.95;;;26.90;60.90;;;;;;4937088;29;20279;-81
2023/06/24 08:50:19;;;;;;;4.28;2.90;;;28.30;59.20;;;;;;4936671;29;20283;-81
2023/06/24 08:52:52;;;;;;;3.00;2.70;;;28.70;53.50;;;;;;4935091;29;20240;-80
2023/06/24 08:55:27;;;;;;;3.17;2.78;;;29.10;56.60;;;;;;4945142;28;20226;-81
2023/06/24 08:57:56;;;;;;;3.92;3.00;;;29.60;52.90;;;;;;4975407;28;20237;-81
2023/06/24 09:00:24;;;;;;;3.17;2.83;;;29.90;50.10;;;;;;4969877;28;20235;-81
2023/06/24 09:02:52;;;;;;;4.65;3.33;;;30.70;49.00;;;;;;4936190;29;20248;-79
2023/06/24 09:05:20;;;;;;;3.03;2.83;;;29.80;49.20;;;;;;4936496;29;20675;-82
2023/06/24 09:07:49;;;;;;;3.58;3.10;;;30.40;46.60;;;;;;4936767;29;20212;-80
2023/06/24 09:10:32;;;;;;;3.30;3.00;;;31.10;45.70;;;;;;4935764;29;20303;-80
2023/06/24 09:13:01;;;;;;;4.00;3.30;;;29.70;49.90;;;;;;4936085;29;20267;-79
2023/06/24 09:15:33;;;;;;;3.60;3.30;;;30.40;46.60;;;;;;4936497;29;20271;-80
2023/06/24 09:18:03;;;;;;;5.15;3.53;;;30.20;46.40;;;;;;4936608;29;20243;-80
2023/06/24 09:20:32;;;;;;;6.18;3.60;;;29.50;46.40;;;;;;4936458;29;20310;-81
2023/06/24 09:23:01;;;;;;;4.60;3.85;;;27.60;51.00;;;;;;4936378;29;20208;-77
2023/06/24 09:25:31;;;;;;;3.92;3.53;;;26.10;54.40;;;;;;4936175;29;20732;-76
2023/06/24 09:28:00;;;;;;;5.68;4.07;;;25.20;56.30;;;;;;4936712;29;20214;-75
2023/06/24 09:30:28;;;;;;;5.07;3.97;;;24.30;63.10;;;;;;4936162;29;20240;-77
2023/06/24 09:32:57;;;;;;;4.03;3.63;;;24.30;64.30;;;;;;4936232;29;20232;-76
2023/06/24 09:35:26;;;;;;;4.88;3.80;;;25.00;62.60;;;;;;4936927;29;20248;-78
2023/06/24 09:37:55;;;;;;;4.95;3.92;;;26.10;58.60;;;;;;4936136;29;20262;-78
2023/06/24 09:40:24;;;;;;;5.03;3.90;;;27.30;57.20;;;;;;4936127;29;20627;-79
2023/06/24 09:42:56;;;;;;;3.88;3.55;;;29.30;51.30;;;;;;4936073;29;20208;-79
2023/06/24 09:45:25;;;;;;;4.57;3.88;;;29.90;51.80;;;;;;4935835;29;20924;-79
2023/06/24 09:47:54;;;;;;;4.10;3.40;;;30.50;45.50;;;;;;4936117;29;20212;-80
2023/06/24 09:50:23;;;;;;;4.20;3.80;;;30.80;48.00;;;;;;4935735;29;20761;-81
2023/06/24 09:52:51;;;;;;;6.13;3.70;;;31.70;44.60;;;;;;4935181;29;20264;-80
2023/06/24 09:55:20;;;;;;;4.03;3.65;;;30.90;44.00;;;;;;4951124;28;20220;-79
2023/06/24 09:57:51;;;;;;;3.95;3.55;;;29.90;45.00;;;;;;4935962;29;20212;-79
2023/06/24 10:00:22;;;;;;;3.75;3.45;;;29.80;47.80;;;;;;4935934;29;20301;-80
2023/06/24 10:02:50;;;;;;;4.43;3.60;;;30.40;46.30;;;;;;4935525;29;20201;-79
2023/06/24 10:05:19;;;;;;;4.40;3.90;;;31.00;41.60;;;;;;4936366;29;20240;-79
2023/06/24 10:07:47;;;;;;;3.80;3.30;;;31.20;39.80;;;;;;4935527;29;20679;-80
2023/06/24 10:10:15;;;;;;;4.00;3.65;;;30.60;42.20;;;;;;4935579;29;20228;-81
2023/06/24 10:12:44;;;;;;;8.68;4.70;;;31.60;39.30;;;;;;4935300;29;20231;-80
2023/06/24 10:15:12;;;;;;;4.30;3.60;;;31.10;39.30;;;;;;4936538;29;20212;-81
2023/06/24 10:17:42;;;;;;;5.88;4.10;;;29.80;41.30;;;;;;4935758;29;20220;-79
2023/06/24 10:20:11;;;;;;;6.55;4.38;;;28.10;44.60;;;;;;4936008;29;20303;-78
2023/06/24 10:22:39;;;;;;;6.35;4.28;;;26.90;47.40;;;;;;4935003;29;20208;-77
2023/06/24 10:25:08;;;;;;;4.78;3.60;;;25.90;51.10;;;;;;4935580;29;20217;-76
2023/06/24 10:27:42;;;;;;;3.78;3.22;;;25.70;54.20;;;;;;4935578;29;20271;-77
2023/06/24 10:30:18;;;;;;;3.60;3.30;;;26.90;56.00;;;;;;4935938;29;20212;-81
2023/06/24 10:32:52;;;;;;;3.58;3.00;;;26.70;48.50;;;;;;4936115;29;20293;-79
2023/06/24 10:35:26;;;;;;;4.18;2.88;;;26.80;48.80;;;;;;4936116;29;20207;-80
2023/06/24 10:37:56;;;;;;;4.05;3.17;;;28.40;48.70;;;;;;4935781;29;20234;-80
2023/06/24 10:40:38;;;;;;;3.08;2.65;;;29.40;40.60;;;;;;4935454;29;20212;-77
2023/06/24 10:43:29;;;;;;;3.90;3.20;;;30.40;39.40;;;;;;4934920;29;20249;-79
2023/06/24 10:45:59;;;;;;;3.47;3.00;;;29.70;38.30;;;;;;4933470;29;20216;-80
2023/06/24 10:48:28;;;;;;;3.90;3.50;;;30.00;41.80;;;;;;4935157;29;20557;-80
2023/06/24 10:50:56;;;;;;;3.40;3.10;;;30.90;37.10;;;;;;4935446;29;20671;-82
2023/06/24 10:53:25;;;;;;;4.28;3.40;;;31.40;34.50;;;;;;4957350;28;20334;-80
2023/06/24 10:55:53;;;;;;;4.38;3.67;;;30.90;37.10;;;;;;4973352;28;20217;-80
2023/06/24 10:58:21;;;;;;;4.05;3.67;;;30.60;36.70;;;;;;4973247;28;20270;-79
2023/06/24 11:00:50;;;;;;;3.97;3.60;;;30.80;39.50;;;;;;4973310;28;20250;-81
2023/06/24 11:03:20;;;;;;;2.92;2.72;;;30.70;37.10;;;;;;4970102;28;20669;-79
2023/06/24 11:05:50;;;;;;;4.97;2.90;;;30.60;40.50;;;;;;4935044;29;20212;-79
2023/06/24 11:08:18;;;;;;;5.60;3.35;;;29.20;41.70;;;;;;4935214;29;20620;-77
2023/06/24 11:10:47;;;;;;;4.72;4.10;;;28.20;44.30;;;;;;4934979;29;20284;-77
2023/06/24 11:13:15;;;;;;;4.57;3.50;;;27.10;46.40;;;;;;4934550;29;20264;-77
2023/06/24 11:15:44;;;;;;;3.88;3.47;;;26.50;50.70;;;;;;4935230;29;20302;-79
2023/06/24 11:18:12;;;;;;;4.13;3.27;;;25.90;51.90;;;;;;4939179;29;20205;-77
2023/06/24 11:20:41;;;;;;;5.80;3.60;;;25.30;50.70;;;;;;4939184;29;20211;-75
2023/06/24 11:23:11;;;;;;;4.47;3.30;;;24.40;52.90;;;;;;4938761;29;20615;-77
2023/06/24 11:25:43;;;;;;;4.60;3.70;;;24.00;53.60;;;;;;4938587;28;20202;-76
2023/06/24 11:28:16;;;;;;;4.90;3.63;;;24.20;54.10;;;;;;4938539;29;20299;-77
2023/06/24 11:30:48;;;;;;;3.80;3.30;;;24.20;53.00;;;;;;4938711;29;20252;-75
2023/06/24 11:33:27;;;;;;;3.83;3.13;;;23.90;53.80;;;;;;4938515;29;20232;-76
2023/06/24 11:35:55;;;;;;;4.87;3.43;;;24.20;56.80;;;;;;4938688;29;20315;-75
2023/06/24 11:38:31;;;;;;;3.80;3.40;;;24.70;55.60;;;;;;4938107;29;20250;-76
2023/06/24 11:41:00;;;;;;;3.60;3.10;;;24.90;54.10;;;;;;4938578;29;20290;-76
2023/06/24 11:43:28;;;;;;;3.50;3.20;;;25.50;56.10;;;;;;4937767;29;20239;-77
2023/06/24 11:45:57;;;;;;;3.70;3.40;;;25.60;56.00;;;;;;4952354;29;20573;-76
2023/06/24 11:48:28;;;;;;;4.27;3.50;;;26.00;53.60;;;;;;4957568;28;20208;-77
2023/06/24 11:50:57;;;;;;;5.03;3.70;;;26.00;50.80;;;;;;4961172;28;20203;-78
2023/06/24 11:53:41;;;;;;;4.57;3.50;;;25.50;53.10;;;;;;4966608;28;20611;-78
2023/06/24 11:56:09;;;;;;;4.63;3.77;;;25.40;52.30;;;;;;4937619;29;20242;-78
2023/06/24 11:58:37;;;;;;;3.80;3.50;;;26.10;51.70;;;;;;4941313;29;20213;-79
2023/06/24 12:01:07;;;;;;;4.63;3.70;;;26.20;51.90;;;;;;4940711;29;20213;-79
2023/06/24 12:03:36;;;;;;;3.87;3.47;;;26.50;52.40;;;;;;4940189;29;20651;-77
2023/06/24 12:06:04;;;;;;;6.10;4.10;;;26.80;53.20;;;;;;4938435;29;20215;-76
2023/06/24 12:08:33;;;;;;;5.53;3.30;;;27.30;51.40;;;;;;4937729;29;20251;-76
2023/06/24 12:11:19;;;;;;;4.67;4.10;;;27.40;51.00;;;;;;4939126;29;20208;-76
2023/06/24 12:13:47;;;;;;;4.60;3.40;;;27.20;46.00;;;;;;4937653;29;20228;-76
2023/06/24 12:16:15;;;;;;;4.43;3.33;;;26.70;47.80;;;;;;4937723;29;20671;-74
2023/06/24 12:18:43;;;;;;;4.00;3.60;;;27.10;53.80;;;;;;4938312;29;20440;-75
2023/06/24 12:21:11;;;;;;;4.97;3.77;;;27.10;51.10;;;;;;4938062;29;20212;-74
2023/06/24 12:23:41;;;;;;;4.20;3.80;;;27.10;51.80;;;;;;4937515;29;20219;-75
2023/06/24 12:26:09;;;;;;;4.40;3.83;;;27.20;48.10;;;;;;4937479;29;20223;-75
2023/06/24 12:28:37;;;;;;;4.20;3.70;;;26.50;47.60;;;;;;4936537;29;20239;-78
2023/06/24 12:31:05;;;;;;;4.07;3.53;;;26.90;49.90;;;;;;4937226;29;20220;-76
2023/06/24 12:33:34;;;;;;;6.30;3.90;;;26.60;48.80;;;;;;4936854;29;20271;-76
2023/06/24 12:36:02;;;;;;;4.90;4.00;;;26.30;48.50;;;;;;4937489;29;20216;-77
2023/06/24 12:38:30;;;;;;;4.10;3.60;;;25.40;48.60;;;;;;4937270;29;20260;-79
2023/06/24 12:41:00;;;;;;;3.20;2.83;;;26.10;47.60;;;;;;4937145;29;20715;-77
2023/06/24 12:43:28;;;;;;;4.50;3.60;;;26.60;49.10;;;;;;4936525;29;20663;-76
2023/06/24 12:45:56;;;;;;;5.83;3.33;;;26.50;42.30;;;;;;4937443;29;20208;-75
2023/06/24 12:48:24;;;;;;;3.80;3.10;;;26.20;44.60;;;;;;4936927;29;20691;-74
2023/06/24 12:50:53;;;;;;;3.83;3.07;;;25.80;44.30;;;;;;4963960;28;20215;-75
2023/06/24 12:53:21;;;;;;;3.83;3.30;;;25.30;44.20;;;;;;4936447;29;20240;-75
2023/06/24 12:55:50;;;;;;;3.70;3.10;;;25.50;45.10;;;;;;4937438;29;20247;-76
2023/06/24 12:58:24;;;;;;;3.47;3.17;;;26.00;46.60;;;;;;4936955;29;20220;-76
2023/06/24 13:00:53;;;;;;;4.20;3.30;;;26.00;42.10;;;;;;4937472;28;20216;-76